Time;durP1;ratioP1;P1;durP2;ratioP2;P2;SDS_P1;SDS_P2;PMS_P1;PMS_P2;Temp;Humidity;BMP_temperature;BMP_pressure;BME280_temperature;BME280_humidity;BME280_pressure;Samples;Min_cycle;Max_cycle;Signal;HPM_P1;HPM_P2
2023/01/12 00:01:57;;;;;;;4.78;1.30;;;;;;;;;;5073563;28;20021;-80
2023/01/12 00:04:22;;;;;;;7.00;1.60;;;;;;;;;;5056610;28;20058;-80
2023/01/12 00:06:47;;;;;;;2.97;1.25;;;;;;;;;;5056443;28;20028;-82
2023/01/12 00:09:13;;;;;;;5.97;1.48;;;;;;;;;;5076592;28;20025;-80
2023/01/12 00:11:39;;;;;;;6.80;1.70;;;;;;;;;;5075818;28;20029;-80
2023/01/12 00:14:05;;;;;;;7.70;1.33;;;;;;;;;;5074081;28;20028;-81
2023/01/12 00:16:33;;;;;;;8.38;1.30;;;;;;;;;;5076079;28;20044;-80
2023/01/12 00:19:01;;;;;;;8.27;1.42;;;;;;;;;;5073384;28;20029;-83
2023/01/12 00:21:26;;;;;;;5.38;1.25;;;;;;;;;;5048685;28;20075;-80
2023/01/12 00:23:51;;;;;;;2.83;1.27;;;;;;;;;;5071727;28;20028;-80
2023/01/12 00:26:16;;;;;;;6.80;1.25;;;;;;;;;;5073738;28;20021;-79
2023/01/12 00:28:42;;;;;;;2.88;1.30;;;;;;;;;;5072616;28;20017;-81
2023/01/12 00:31:09;;;;;;;5.47;1.45;;;;;;;;;;5054446;28;20015;-80
2023/01/12 00:33:36;;;;;;;6.00;1.45;;;;;;;;;;5073736;28;20104;-79
2023/01/12 00:36:12;;;;;;;2.63;1.10;;;;;;;;;;5055479;28;20035;-78
2023/01/12 00:38:37;;;;;;;4.95;1.33;;;;;;;;;;5053588;28;20083;-81
2023/01/12 00:41:07;;;;;;;11.82;1.70;;;;;;;;;;5074021;28;20028;-80
2023/01/12 00:46:16;;;;;;;4.93;1.45;;;;;;;;;;5069364;28;20050;-80
2023/01/12 00:48:41;;;;;;;5.13;1.25;;;;;;;;;;5068436;28;20048;-81
2023/01/12 00:51:06;;;;;;;5.32;1.45;;;;;;;;;;5067882;28;20032;-80
2023/01/12 00:53:31;;;;;;;3.37;1.17;;;;;;;;;;5070977;28;20029;-82
2023/01/12 00:56:04;;;;;;;2.58;1.20;;;;;;;;;;5066339;28;20326;-80
2023/01/12 00:58:29;;;;;;;6.70;1.92;;;;;;;;;;5066288;28;20025;-80
2023/01/12 01:01:02;;;;;;;5.25;1.20;;;;;;;;;;5064058;28;20035;-80
2023/01/12 01:03:28;;;;;;;9.35;1.73;;;;;;;;;;5065596;28;20025;-80
2023/01/12 01:06:03;;;;;;;4.45;1.20;;;;;;;;;;5063428;28;20371;-80
2023/01/12 01:08:29;;;;;;;5.50;1.20;;;;;;;;;;5070580;28;20025;-80
2023/01/12 01:11:03;;;;;;;3.22;1.10;;;;;;;;;;5067817;28;20029;-80
2023/01/12 01:13:28;;;;;;;5.47;1.10;;;;;;;;;;5069708;28;20048;-82
2023/01/12 01:15:53;;;;;;;7.05;1.20;;;;;;;;;;5062610;28;20021;-81
2023/01/12 01:18:19;;;;;;;5.17;0.90;;;;;;;;;;5069089;28;20028;-81
2023/01/12 01:20:46;;;;;;;3.03;0.82;;;;;;;;;;5068819;28;20260;-81
2023/01/12 01:23:11;;;;;;;3.53;1.15;;;;;;;;;;5073324;28;20060;-80
2023/01/12 01:25:36;;;;;;;6.73;1.27;;;;;;;;;;5066363;28;20414;-81
2023/01/12 01:28:01;;;;;;;6.07;1.37;;;;;;;;;;5052006;28;20318;-80
2023/01/12 01:30:27;;;;;;;3.60;1.00;;;;;;;;;;5070948;28;20675;-81
2023/01/12 01:32:52;;;;;;;1.38;0.60;;;;;;;;;;5072148;28;20055;-78
2023/01/12 01:35:17;;;;;;;2.60;0.80;;;;;;;;;;5069691;28;20021;-79
2023/01/12 01:37:42;;;;;;;4.90;1.00;;;;;;;;;;5069302;28;20289;-78
2023/01/12 01:40:08;;;;;;;4.40;0.90;;;;;;;;;;5066131;28;20250;-79
2023/01/12 01:42:33;;;;;;;3.13;0.82;;;;;;;;;;5066222;28;20368;-80
2023/01/12 01:45:01;;;;;;;3.88;0.70;;;;;;;;;;5065293;28;20033;-80
2023/01/12 01:47:35;;;;;;;4.88;0.90;;;;;;;;;;5068866;28;20021;-80
2023/01/12 01:50:03;;;;;;;5.88;0.95;;;;;;;;;;5066301;28;20099;-81
2023/01/12 01:52:37;;;;;;;5.82;1.33;;;;;;;;;;5070234;28;20086;-79
2023/01/12 01:55:23;;;;;;;6.45;1.00;;;;;;;;;;5068061;28;20032;-78
2023/01/12 01:58:14;;;;;;;2.65;0.90;;;;;;;;;;5068173;28;20072;-81
2023/01/12 02:00:41;;;;;;;2.88;0.82;;;;;;;;;;5067267;28;20035;-81
2023/01/12 02:03:08;;;;;;;6.35;0.85;;;;;;;;;;5068562;28;20062;-81
2023/01/12 02:05:36;;;;;;;3.30;0.75;;;;;;;;;;5061777;28;20032;-81
2023/01/12 02:08:10;;;;;;;2.20;0.73;;;;;;;;;;5064988;28;20025;-81
2023/01/12 02:10:37;;;;;;;3.63;1.08;;;;;;;;;;5070766;28;20044;-81
2023/01/12 02:16:21;;;;;;;4.90;0.70;;;;;;;;;;5066783;28;20071;-81
2023/01/12 02:19:11;;;;;;;4.75;0.93;;;;;;;;;;5068273;28;20025;-81
2023/01/12 02:21:56;;;;;;;3.28;1.00;;;;;;;;;;5071859;28;20024;-80
2023/01/12 02:24:48;;;;;;;4.57;0.77;;;;;;;;;;5067840;28;20093;-81
2023/01/12 02:27:30;;;;;;;4.70;0.93;;;;;;;;;;5064951;28;20027;-81
2023/01/12 02:30:26;;;;;;;6.80;0.95;;;;;;;;;;5044715;28;20112;-80
2023/01/12 02:33:04;;;;;;;2.92;0.88;;;;;;;;;;5067764;28;20382;-81
2023/01/12 02:35:48;;;;;;;3.88;0.60;;;;;;;;;;5048923;28;20017;-81
2023/01/12 02:38:36;;;;;;;4.38;0.70;;;;;;;;;;5066297;28;20025;-81
2023/01/12 02:44:37;;;;;;;2.33;0.77;;;;;;;;;;5071715;28;20044;-81
2023/01/12 02:47:06;;;;;;;1.80;0.82;;;;;;;;;;5071828;28;20095;-80
2023/01/12 02:49:40;;;;;;;2.42;0.70;;;;;;;;;;5068377;28;20044;-80
2023/01/12 02:52:12;;;;;;;3.20;1.00;;;;;;;;;;5073596;28;20226;-81
2023/01/12 02:54:39;;;;;;;3.97;1.10;;;;;;;;;;5077387;28;20037;-80
2023/01/12 02:57:07;;;;;;;2.17;0.70;;;;;;;;;;5077579;28;20025;-79
2023/01/12 02:59:36;;;;;;;5.32;0.95;;;;;;;;;;5078506;28;20080;-80
2023/01/12 03:02:05;;;;;;;2.92;0.80;;;;;;;;;;5078441;28;20009;-81
2023/01/12 03:04:32;;;;;;;2.42;0.80;;;;;;;;;;5077795;28;20059;-81
2023/01/12 03:06:57;;;;;;;4.60;1.00;;;;;;;;;;5075670;28;20051;-80
2023/01/12 03:09:35;;;;;;;1.47;0.60;;;;;;;;;;5076565;28;20025;-79
2023/01/12 03:12:07;;;;;;;3.00;0.77;;;;;;;;;;5074768;28;20296;-80
2023/01/12 03:14:35;;;;;;;2.70;0.88;;;;;;;;;;5076426;28;20078;-80
2023/01/12 03:17:06;;;;;;;3.05;0.73;;;;;;;;;;5074389;28;20053;-81
2023/01/12 03:19:32;;;;;;;2.88;0.65;;;;;;;;;;5075691;28;20028;-81
2023/01/12 03:22:00;;;;;;;6.30;0.90;;;;;;;;;;5074165;28;20025;-80
2023/01/12 03:24:30;;;;;;;3.40;0.82;;;;;;;;;;5074639;28;20027;-80
2023/01/12 03:27:04;;;;;;;3.03;0.93;;;;;;;;;;5076528;28;20052;-81
2023/01/12 03:29:42;;;;;;;4.25;0.90;;;;;;;;;;5077277;28;20025;-82
2023/01/12 03:32:07;;;;;;;4.68;1.02;;;;;;;;;;5071733;28;20025;-80
2023/01/12 03:34:34;;;;;;;4.20;0.80;;;;;;;;;;5075964;28;20146;-80
2023/01/12 03:37:25;;;;;;;3.20;0.80;;;;;;;;;;5076330;28;20475;-80
2023/01/12 03:40:00;;;;;;;7.60;1.00;;;;;;;;;;5073485;28;20024;-81
2023/01/12 03:42:37;;;;;;;1.80;0.68;;;;;;;;;;5057377;28;20029;-81
2023/01/12 03:45:25;;;;;;;5.07;0.90;;;;;;;;;;5074196;28;20032;-80
2023/01/12 03:47:56;;;;;;;4.90;0.88;;;;;;;;;;5070747;28;20027;-81
2023/01/12 03:50:28;;;;;;;2.58;0.90;;;;;;;;;;5069874;28;20021;-80
2023/01/12 03:52:55;;;;;;;2.55;0.90;;;;;;;;;;5055095;28;20075;-80
2023/01/12 03:55:23;;;;;;;4.35;1.00;;;;;;;;;;5073557;28;20080;-80
2023/01/12 03:57:49;;;;;;;2.85;0.80;;;;;;;;;;5068381;28;20032;-79
2023/01/12 04:00:17;;;;;;;6.85;0.80;;;;;;;;;;5051410;28;20029;-80
2023/01/12 04:02:43;;;;;;;3.67;1.00;;;;;;;;;;5070147;28;20029;-81
2023/01/12 04:05:09;;;;;;;3.05;0.80;;;;;;;;;;5070428;28;20033;-80
2023/01/12 04:07:34;;;;;;;2.55;0.70;;;;;;;;;;5070943;28;20386;-81
2023/01/12 04:09:59;;;;;;;3.38;0.90;;;;;;;;;;5070627;28;20048;-80
2023/01/12 04:12:24;;;;;;;2.33;0.47;;;;;;;;;;5073406;28;20028;-81
2023/01/12 04:14:50;;;;;;;1.38;0.68;;;;;;;;;;5074654;28;20021;-80
2023/01/12 04:17:15;;;;;;;5.40;1.00;;;;;;;;;;5073323;28;20456;-80
2023/01/12 04:19:41;;;;;;;4.38;0.77;;;;;;;;;;5075187;28;20254;-80
2023/01/12 04:24:51;;;;;;;4.38;0.90;;;;;;;;;;5069403;28;20086;-82
2023/01/12 04:27:16;;;;;;;3.25;0.70;;;;;;;;;;5068902;28;20021;-82
2023/01/12 04:29:42;;;;;;;2.13;0.70;;;;;;;;;;5067735;28;20029;-81
2023/01/12 04:32:08;;;;;;;6.10;1.10;;;;;;;;;;5071448;28;20056;-81
2023/01/12 04:34:33;;;;;;;7.03;1.05;;;;;;;;;;5070023;28;20040;-81
2023/01/12 04:37:00;;;;;;;4.82;1.13;;;;;;;;;;5067360;28;20481;-81
2023/01/12 04:39:25;;;;;;;5.50;1.08;;;;;;;;;;5068451;28;20025;-80
2023/01/12 04:41:51;;;;;;;2.85;0.77;;;;;;;;;;5070759;28;20039;-80
2023/01/12 04:44:16;;;;;;;4.57;1.07;;;;;;;;;;5071436;28;20025;-81
2023/01/12 04:46:41;;;;;;;5.25;1.30;;;;;;;;;;5069204;28;20253;-80
2023/01/12 04:49:06;;;;;;;3.17;0.82;;;;;;;;;;5072334;28;20033;-79
2023/01/12 04:51:32;;;;;;;2.33;0.88;;;;;;;;;;5057845;28;20471;-81
2023/01/12 04:53:57;;;;;;;1.45;0.80;;;;;;;;;;5073531;28;20029;-81
2023/01/12 04:56:22;;;;;;;4.30;1.08;;;;;;;;;;5070288;28;20035;-80
2023/01/12 04:58:47;;;;;;;7.60;0.90;;;;;;;;;;5072020;28;20029;-80
2023/01/12 05:01:18;;;;;;;2.28;0.70;;;;;;;;;;5072445;28;20017;-80
2023/01/12 05:03:44;;;;;;;4.03;0.90;;;;;;;;;;5054136;28;20021;-80
2023/01/12 05:06:09;;;;;;;1.77;0.77;;;;;;;;;;5051147;28;20027;-79
2023/01/12 05:11:20;;;;;;;4.28;0.98;;;;;;;;;;5070504;28;20036;-79
2023/01/12 05:13:45;;;;;;;4.75;1.00;;;;;;;;;;5073582;28;20036;-80
2023/01/12 05:16:14;;;;;;;3.22;0.82;;;;;;;;;;5067875;28;20024;-79
2023/01/12 05:18:40;;;;;;;5.95;1.08;;;;;;;;;;5062501;28;20059;-80
2023/01/12 05:21:05;;;;;;;4.10;1.08;;;;;;;;;;5059279;28;20016;-80
2023/01/12 05:23:30;;;;;;;5.20;1.05;;;;;;;;;;5058950;28;20090;-81
2023/01/12 05:26:00;;;;;;;3.92;1.10;;;;;;;;;;5040702;28;20028;-79
2023/01/12 05:28:27;;;;;;;3.83;0.90;;;;;;;;;;5061945;28;20025;-80
2023/01/12 05:30:52;;;;;;;6.13;0.77;;;;;;;;;;5062258;28;20021;-80
2023/01/12 05:33:18;;;;;;;3.90;1.27;;;;;;;;;;5061097;28;20568;-79
2023/01/12 05:35:44;;;;;;;3.33;1.00;;;;;;;;;;5062670;28;20021;-80
2023/01/12 05:38:09;;;;;;;8.80;1.50;;;;;;;;;;5061008;28;20035;-80
2023/01/12 05:40:34;;;;;;;4.28;1.15;;;;;;;;;;5061232;28;20037;-79
2023/01/12 05:45:43;;;;;;;4.05;1.10;;;;;;;;;;5062862;28;20406;-81
2023/01/12 05:48:10;;;;;;;2.63;1.10;;;;;;;;;;5046075;28;20029;-81
2023/01/12 05:50:35;;;;;;;3.03;1.13;;;;;;;;;;5063203;28;20035;-79
2023/01/12 05:53:00;;;;;;;6.72;1.13;;;;;;;;;;5064160;28;20029;-80
2023/01/12 05:55:25;;;;;;;4.13;1.00;;;;;;;;;;5064861;28;20025;-81
2023/01/12 05:57:51;;;;;;;5.15;1.25;;;;;;;;;;5066001;28;20465;-81
2023/01/12 06:00:17;;;;;;;7.05;1.58;;;;;;;;;;5064206;28;20025;-80
2023/01/12 06:02:42;;;;;;;5.72;1.10;;;;;;;;;;5064571;28;20028;-80
2023/01/12 06:05:08;;;;;;;3.17;1.13;;;;;;;;;;5048331;28;20405;-82
2023/01/12 06:07:34;;;;;;;5.38;1.20;;;;;;;;;;5065081;28;20480;-81
2023/01/12 06:09:59;;;;;;;4.55;1.13;;;;;;;;;;5061360;28;20025;-82
2023/01/12 06:15:09;;;;;;;3.67;1.20;;;;;;;;;;5061751;28;20500;-81
2023/01/12 06:17:34;;;;;;;8.38;1.30;;;;;;;;;;5061828;28;20116;-81
2023/01/12 06:19:59;;;;;;;4.03;1.05;;;;;;;;;;5062906;28;20032;-82
2023/01/12 06:22:26;;;;;;;6.30;1.20;;;;;;;;;;5062498;28;20378;-81
2023/01/12 06:24:52;;;;;;;7.25;1.25;;;;;;;;;;5064188;28;20025;-83
2023/01/12 06:27:17;;;;;;;6.57;1.02;;;;;;;;;;5062853;28;20094;-81
2023/01/12 06:29:43;;;;;;;6.75;1.23;;;;;;;;;;5063933;28;20080;-81
2023/01/12 06:32:08;;;;;;;6.30;1.00;;;;;;;;;;5061377;28;20112;-81
2023/01/12 06:34:34;;;;;;;6.53;1.17;;;;;;;;;;5061019;28;20028;-80
2023/01/12 06:37:01;;;;;;;3.33;1.00;;;;;;;;;;5062072;28;20036;-81
2023/01/12 06:39:27;;;;;;;4.13;1.17;;;;;;;;;;5062514;28;20052;-80
2023/01/12 06:44:36;;;;;;;4.57;1.55;;;;;;;;;;5060781;28;20032;-80
2023/01/12 06:47:02;;;;;;;3.55;1.60;;;;;;;;;;5061954;28;20021;-80
2023/01/12 06:49:27;;;;;;;5.70;1.70;;;;;;;;;;5062225;28;20028;-81
2023/01/12 06:51:53;;;;;;;7.20;1.43;;;;;;;;;;5060916;28;20530;-79
2023/01/12 06:54:18;;;;;;;3.20;1.23;;;;;;;;;;5061028;28;20309;-82
2023/01/12 06:56:43;;;;;;;3.55;1.40;;;;;;;;;;5061376;28;20029;-79
2023/01/12 06:59:11;;;;;;;2.95;1.27;;;;;;;;;;5061209;28;20052;-81
2023/01/12 07:01:36;;;;;;;6.80;1.38;;;;;;;;;;5060527;28;20020;-82
2023/01/12 07:04:01;;;;;;;6.97;1.40;;;;;;;;;;5061553;28;20156;-82
2023/01/12 07:06:26;;;;;;;4.88;1.40;;;;;;;;;;5060522;28;20045;-80
2023/01/12 07:08:52;;;;;;;5.70;1.40;;;;;;;;;;5059547;28;20032;-82
2023/01/12 07:11:17;;;;;;;4.53;1.40;;;;;;;;;;5060008;28;20270;-81
2023/01/12 07:13:42;;;;;;;4.63;1.52;;;;;;;;;;5060395;28;20301;-81
2023/01/12 07:16:08;;;;;;;7.95;1.58;;;;;;;;;;5061549;28;20029;-80
2023/01/12 07:18:33;;;;;;;5.65;1.48;;;;;;;;;;5061948;28;20025;-81
2023/01/12 07:21:03;;;;;;;5.43;1.30;;;;;;;;;;5061932;28;20029;-80
2023/01/12 07:23:28;;;;;;;5.43;1.25;;;;;;;;;;5044378;28;20021;-80
2023/01/12 07:25:55;;;;;;;8.40;1.47;;;;;;;;;;5061728;28;20023;-81
2023/01/12 07:28:21;;;;;;;5.32;1.20;;;;;;;;;;5062483;28;20795;-81
2023/01/12 07:30:46;;;;;;;6.23;1.77;;;;;;;;;;5063820;28;20061;-80
2023/01/12 07:33:13;;;;;;;3.60;1.15;;;;;;;;;;5065999;28;20269;-81
2023/01/12 07:35:39;;;;;;;5.25;1.20;;;;;;;;;;5065312;28;20025;-82
2023/01/12 07:38:05;;;;;;;5.90;1.02;;;;;;;;;;5065196;28;20025;-81
2023/01/12 07:40:30;;;;;;;3.28;1.30;;;;;;;;;;5061986;28;20080;-79
2023/01/12 07:43:00;;;;;;;5.00;1.70;;;;;;;;;;5065030;28;20020;-81
2023/01/12 07:45:26;;;;;;;6.47;1.15;;;;;;;;;;5065054;28;20036;-81
2023/01/12 07:47:55;;;;;;;7.22;1.35;;;;;;;;;;5064611;28;20021;-81
2023/01/12 07:50:21;;;;;;;3.85;1.48;;;;;;;;;;5063279;28;20033;-80
2023/01/12 07:52:47;;;;;;;3.47;1.40;;;;;;;;;;5061707;28;20458;-79
2023/01/12 07:55:12;;;;;;;9.00;1.85;;;;;;;;;;5065443;28;20025;-79
2023/01/12 07:57:37;;;;;;;8.40;1.95;;;;;;;;;;5047223;28;20432;-80
2023/01/12 08:00:04;;;;;;;4.35;1.70;;;;;;;;;;5064560;28;20079;-81
2023/01/12 08:02:30;;;;;;;7.22;1.80;;;;;;;;;;5064016;28;20052;-81
2023/01/12 08:04:55;;;;;;;6.55;1.50;;;;;;;;;;5065915;28;20033;-83
2023/01/12 08:07:21;;;;;;;4.45;1.45;;;;;;;;;;5072964;28;20083;-82
2023/01/12 08:09:46;;;;;;;7.80;1.88;;;;;;;;;;5069923;28;20036;-82
2023/01/12 08:12:11;;;;;;;3.45;1.33;;;;;;;;;;5074877;28;20051;-81
2023/01/12 08:14:38;;;;;;;6.78;1.83;;;;;;;;;;5066261;28;20017;-83
2023/01/12 08:17:09;;;;;;;6.95;1.90;;;;;;;;;;5066945;28;20025;-82
2023/01/12 08:19:40;;;;;;;5.00;1.65;;;;;;;;;;5063804;28;20052;-82
2023/01/12 08:22:14;;;;;;;3.83;1.58;;;;;;;;;;5062759;28;20088;-84
2023/01/12 08:24:42;;;;;;;;;;;;;;;;;;5065164;28;20021;-82
2023/01/12 08:27:08;;;;;;;4.50;1.70;;;;;;;;;;5062563;28;19999;-81
2023/01/12 08:29:44;;;;;;;5.43;1.77;;;;;;;;;;5063541;28;20024;-81
2023/01/12 08:32:12;;;;;;;5.65;1.80;;;;;;;;;;5063650;28;20040;-82
2023/01/12 08:34:40;;;;;;;4.97;1.70;;;;;;;;;;5063788;28;20082;-81
2023/01/12 08:37:08;;;;;;;4.60;2.05;;;;;;;;;;5064706;28;20033;-81
2023/01/12 08:39:35;;;;;;;3.78;1.83;;;;;;;;;;5066976;28;20028;-82
2023/01/12 08:42:00;;;;;;;5.88;2.10;;;;;;;;;;5065540;28;20033;-82
2023/01/12 08:44:30;;;;;;;5.05;1.60;;;;;;;;;;5065281;28;20037;-82
2023/01/12 08:46:56;;;;;;;3.50;1.65;;;;;;;;;;5067291;28;20033;-82
2023/01/12 08:49:25;;;;;;;9.00;1.58;;;;;;;;;;5065470;28;20028;-81
2023/01/12 08:51:50;;;;;;;3.00;1.48;;;;;;;;;;5065305;28;20052;-82
2023/01/12 08:54:17;;;;;;;6.43;1.60;;;;;;;;;;5064348;28;20033;-81
2023/01/12 08:56:43;;;;;;;9.18;1.90;;;;;;;;;;5065612;28;20452;-82
2023/01/12 08:59:08;;;;;;;9.50;2.00;;;;;;;;;;5064691;28;20059;-83
2023/01/12 09:01:34;;;;;;;4.90;1.70;;;;;;;;;;5065033;28;20056;-83
2023/01/12 09:03:59;;;;;;;3.53;1.55;;;;;;;;;;5064881;28;20033;-83
2023/01/12 09:06:30;;;;;;;6.43;1.73;;;;;;;;;;5063348;28;20076;-83
2023/01/12 09:09:00;;;;;;;4.57;1.55;;;;;;;;;;5060729;28;20017;-81
2023/01/12 09:11:27;;;;;;;5.35;1.67;;;;;;;;;;5064016;28;20036;-81
2023/01/12 09:13:54;;;;;;;4.03;1.63;;;;;;;;;;5063542;28;20100;-82
2023/01/12 09:16:20;;;;;;;3.67;1.30;;;;;;;;;;5065452;28;20033;-82
2023/01/12 09:18:45;;;;;;;6.45;1.58;;;;;;;;;;5065980;28;20135;-82
2023/01/12 09:21:12;;;;;;;4.85;1.20;;;;;;;;;;5066492;28;20025;-82
2023/01/12 09:23:39;;;;;;;5.28;1.10;;;;;;;;;;5048126;28;20021;-81
2023/01/12 09:26:06;;;;;;;4.57;0.88;;;;;;;;;;5065178;28;20104;-81
2023/01/12 09:28:32;;;;;;;5.78;1.33;;;;;;;;;;5065802;28;20414;-81
2023/01/12 09:31:10;;;;;;;4.82;1.27;;;;;;;;;;5065774;28;20025;-82
2023/01/12 09:33:36;;;;;;;3.55;0.90;;;;;;;;;;5066722;28;20382;-82
2023/01/12 09:36:04;;;;;;;4.05;1.10;;;;;;;;;;5067032;28;20060;-82
2023/01/12 09:38:29;;;;;;;6.72;0.98;;;;;;;;;;5065184;28;20025;-82
2023/01/12 09:41:00;;;;;;;3.08;1.05;;;;;;;;;;5065780;28;20024;-80
2023/01/12 09:49:25;;;;;;;1.55;0.82;;;;;;;;;;5066926;28;20039;-82
2023/01/12 09:51:58;;;;;;;2.95;0.63;;;;;;;;;;5066345;28;20025;-81
2023/01/12 09:54:24;;;;;;;4.68;0.80;;;;;;;;;;5065204;28;20029;-81
2023/01/12 09:57:04;;;;;;;4.95;0.90;;;;;;;;;;5064873;28;20056;-82
2023/01/12 09:59:39;;;;;;;2.05;0.73;;;;;;;;;;5066574;28;20090;-81
2023/01/12 10:02:10;;;;;;;5.03;0.85;;;;;;;;;;5062663;28;20048;-81
2023/01/12 10:04:36;;;;;;;3.47;0.80;;;;;;;;;;5063118;28;20043;-81
2023/01/12 10:07:02;;;;;;;1.35;0.57;;;;;;;;;;5064408;28;20040;-81
2023/01/12 10:09:27;;;;;;;3.75;0.80;;;;;;;;;;5064504;28;20021;-81
2023/01/12 10:12:02;;;;;;;1.58;0.80;;;;;;;;;;5064029;28;20394;-81
2023/01/12 10:14:30;;;;;;;0.98;0.70;;;;;;;;;;5062406;28;20077;-79
2023/01/12 10:17:14;;;;;;;5.40;0.98;;;;;;;;;;5064432;28;20025;-82
2023/01/12 10:19:54;;;;;;;2.75;0.85;;;;;;;;;;5065737;28;20031;-83
2023/01/12 10:22:35;;;;;;;4.18;0.63;;;;;;;;;;5065090;28;20486;-80
2023/01/12 10:25:03;;;;;;;3.17;0.77;;;;;;;;;;5064469;28;20021;-82
2023/01/12 10:27:28;;;;;;;4.45;0.88;;;;;;;;;;5065458;28;20585;-83
2023/01/12 10:29:57;;;;;;;3.28;0.80;;;;;;;;;;5065477;28;20033;-80
2023/01/12 10:32:25;;;;;;;1.92;0.60;;;;;;;;;;5066420;28;20024;-81
2023/01/12 10:34:51;;;;;;;5.03;0.80;;;;;;;;;;5063898;28;20111;-82
2023/01/12 10:37:16;;;;;;;1.58;0.80;;;;;;;;;;5064721;28;20048;-80
2023/01/12 10:39:43;;;;;;;4.90;0.98;;;;;;;;;;5064243;28;20063;-81
2023/01/12 10:45:21;;;;;;;3.03;1.00;;;;;;;;;;5064637;28;20036;-82
2023/01/12 10:47:48;;;;;;;3.85;1.00;;;;;;;;;;5064319;28;20035;-80
2023/01/12 10:50:26;;;;;;;4.57;0.90;;;;;;;;;;5063319;28;20048;-81
2023/01/12 10:52:57;;;;;;;4.90;0.90;;;;;;;;;;5064637;28;20114;-82
2023/01/12 10:55:23;;;;;;;3.20;0.80;;;;;;;;;;5064268;28;20032;-81
2023/01/12 10:57:50;;;;;;;2.28;0.70;;;;;;;;;;5065166;28;20057;-82
2023/01/12 11:00:22;;;;;;;3.97;1.05;;;;;;;;;;5064639;28;20479;-81
2023/01/12 11:02:48;;;;;;;1.48;0.70;;;;;;;;;;5063898;28;20025;-82
2023/01/12 11:05:37;;;;;;;1.58;0.68;;;;;;;;;;5065148;28;20039;-82
2023/01/12 11:08:20;;;;;;;1.08;0.52;;;;;;;;;;5068566;28;20025;-80
2023/01/12 11:10:45;;;;;;;5.65;0.80;;;;;;;;;;5068918;28;20025;-81
2023/01/12 11:13:24;;;;;;;2.53;0.83;;;;;;;;;;5068688;28;20078;-82
2023/01/12 11:16:01;;;;;;;0.88;0.70;;;;;;;;;;5068453;28;20253;-82
2023/01/12 11:18:48;;;;;;;3.67;0.60;;;;;;;;;;5068837;28;20040;-81
2023/01/12 11:21:18;;;;;;;2.80;0.70;;;;;;;;;;5068460;28;20029;-81
2023/01/12 11:23:59;;;;;;;1.58;0.88;;;;;;;;;;5068568;28;20033;-82
2023/01/12 11:26:31;;;;;;;1.95;0.60;;;;;;;;;;5068134;28;20020;-80
2023/01/12 11:29:03;;;;;;;4.55;0.93;;;;;;;;;;5069465;28;20045;-80
2023/01/12 11:31:38;;;;;;;5.25;0.90;;;;;;;;;;5068550;28;20032;-81
2023/01/12 11:34:15;;;;;;;2.22;0.70;;;;;;;;;;5067449;28;20039;-81
2023/01/12 11:36:45;;;;;;;0.30;0.20;;;;;;;;;;5068234;28;20057;-82
2023/01/12 11:39:21;;;;;;;4.30;0.80;;;;;;;;;;5065962;28;20021;-82
2023/01/12 11:45:00;;;;;;;1.42;0.63;;;;;;;;;;5068735;28;20035;-80
2023/01/12 11:47:40;;;;;;;2.08;0.80;;;;;;;;;;5037935;28;20055;-80
2023/01/12 11:50:24;;;;;;;5.07;0.93;;;;;;;;;;5066454;28;20036;-82
2023/01/12 11:52:50;;;;;;;1.85;0.70;;;;;;;;;;5067037;28;20516;-82
2023/01/12 11:55:24;;;;;;;5.28;0.80;;;;;;;;;;5066078;28;20021;-81
2023/01/12 11:57:59;;;;;;;;;;;;;;;;;;5063423;28;20047;-83
2023/01/12 12:00:37;;;;;;;2.10;0.55;;;;;;;;;;5062393;28;19909;-81
2023/01/12 12:03:24;;;;;;;1.75;0.50;;;;;;;;;;5063096;28;20522;-82
2023/01/12 12:06:27;;;;;;;2.15;0.65;;;;;;;;;;5062076;28;20032;-81
2023/01/12 12:09:08;;;;;;;4.10;0.90;;;;;;;;;;5060592;28;20024;-82
2023/01/12 12:11:54;;;;;;;1.20;0.57;;;;;;;;;;5064218;28;20021;-81
2023/01/12 12:14:30;;;;;;;0.70;0.50;;;;;;;;;;5047263;28;20025;-81
2023/01/12 12:17:07;;;;;;;0.90;0.50;;;;;;;;;;5062784;28;20032;-81
2023/01/12 12:19:43;;;;;;;2.17;0.75;;;;;;;;;;5065541;28;20079;-81
2023/01/12 12:22:25;;;;;;;2.10;0.50;;;;;;;;;;5067194;28;20045;-82
2023/01/12 12:25:04;;;;;;;1.50;0.60;;;;;;;;;;5067351;28;20025;-84
2023/01/12 12:27:41;;;;;;;1.23;0.55;;;;;;;;;;5067791;28;20028;-82
2023/01/12 12:30:45;;;;;;;4.32;0.73;;;;;;;;;;5066580;28;20029;-81
2023/01/12 12:33:28;;;;;;;1.73;0.70;;;;;;;;;;5048464;28;20063;-82
2023/01/12 12:36:08;;;;;;;2.25;0.70;;;;;;;;;;5067806;28;20371;-81
2023/01/12 12:39:10;;;;;;;3.13;0.55;;;;;;;;;;5067653;28;20082;-80
2023/01/12 12:47:39;;;;;;;0.50;0.38;;;;;;;;;;5066446;28;20085;-81
2023/01/12 12:50:15;;;;;;;1.95;0.57;;;;;;;;;;5066050;28;20100;-81
2023/01/12 12:52:40;;;;;;;1.02;0.60;;;;;;;;;;5063888;28;20036;-82
2023/01/12 12:55:11;;;;;;;4.45;0.55;;;;;;;;;;5063987;28;20024;-81
2023/01/12 12:57:57;;;;;;;0.90;0.57;;;;;;;;;;5063444;28;20029;-82
2023/01/12 13:00:41;;;;;;;0.63;0.47;;;;;;;;;;5063018;28;20020;-82
2023/01/12 13:03:07;;;;;;;3.13;0.75;;;;;;;;;;5062717;28;20366;-82
2023/01/12 13:05:45;;;;;;;0.65;0.50;;;;;;;;;;5064210;28;20056;-82
2023/01/12 13:08:25;;;;;;;1.77;0.80;;;;;;;;;;5062136;28;20025;-81
2023/01/12 13:10:56;;;;;;;6.57;0.70;;;;;;;;;;5062426;28;20430;-82
2023/01/12 13:13:34;;;;;;;3.42;0.80;;;;;;;;;;5061624;28;20031;-81
2023/01/12 13:16:20;;;;;;;1.67;0.82;;;;;;;;;;5061932;28;20094;-81
2023/01/12 13:18:48;;;;;;;2.53;0.55;;;;;;;;;;5030320;28;20052;-81
2023/01/12 13:21:25;;;;;;;2.40;0.85;;;;;;;;;;5062896;28;20024;-81
2023/01/12 13:23:51;;;;;;;2.35;1.02;;;;;;;;;;5062944;28;20032;-81
2023/01/12 13:26:51;;;;;;;1.30;0.60;;;;;;;;;;5060403;28;20040;-82
2023/01/12 13:29:22;;;;;;;1.52;0.68;;;;;;;;;;5046778;28;20037;-82
2023/01/12 13:31:54;;;;;;;1.80;1.30;;;;;;;;;;5060425;28;20032;-81
2023/01/12 13:34:28;;;;;;;2.58;1.02;;;;;;;;;;5061942;28;20024;-82
2023/01/12 13:37:28;;;;;;;1.90;0.90;;;;;;;;;;5062008;28;20025;-81
2023/01/12 13:40:08;;;;;;;2.67;1.30;;;;;;;;;;5062381;28;20418;-83
2023/01/12 13:45:18;;;;;;;3.92;2.00;;;;;;;;;;5062109;28;20040;-83
2023/01/12 13:47:48;;;;;;;1.92;1.13;;;;;;;;;;5062205;28;20025;-81
2023/01/12 13:50:20;;;;;;;2.95;1.10;;;;;;;;;;5061029;28;20084;-81
2023/01/12 13:52:58;;;;;;;1.33;0.90;;;;;;;;;;5061215;28;20032;-82
2023/01/12 13:55:27;;;;;;;0.77;0.60;;;;;;;;;;5059280;28;20029;-81
2023/01/12 13:57:59;;;;;;;1.75;0.98;;;;;;;;;;5057909;28;20079;-81
2023/01/12 14:00:25;;;;;;;2.05;0.80;;;;;;;;;;5058681;28;20031;-81
2023/01/12 14:02:51;;;;;;;1.73;0.68;;;;;;;;;;5059559;28;20111;-81
2023/01/12 14:05:44;;;;;;;3.92;1.30;;;;;;;;;;5042109;28;20033;-80
2023/01/12 14:08:43;;;;;;;0.70;0.70;;;;;;;;;;5061940;28;20025;-80
2023/01/12 14:11:31;;;;;;;2.28;1.00;;;;;;;;;;5061254;28;20386;-81
2023/01/12 14:20:17;;;;;;;2.72;1.70;;;;;;;;;;5061757;28;20540;-80
2023/01/12 14:22:44;;;;;;;3.90;1.50;;;;;;;;;;5063341;28;20438;-80
2023/01/12 14:25:27;;;;;;;3.35;1.20;;;;;;;;;;5062265;28;20021;-81
2023/01/12 14:27:56;;;;;;;2.83;1.40;;;;;;;;;;5062238;28;20104;-82
2023/01/12 14:30:24;;;;;;;1.77;0.85;;;;;;;;;;5045434;28;20154;-81
2023/01/12 14:32:50;;;;;;;2.70;1.20;;;;;;;;;;5073746;28;20054;-81
2023/01/12 14:35:18;;;;;;;1.42;0.90;;;;;;;;;;5073734;28;20029;-81
2023/01/12 14:37:50;;;;;;;2.97;1.10;;;;;;;;;;5070713;28;20052;-81
2023/01/12 14:40:21;;;;;;;2.60;1.10;;;;;;;;;;5057514;28;20036;-81
2023/01/12 14:48:23;;;;;;;1.95;1.17;;;;;;;;;;5058205;28;20090;-80
2023/01/12 14:51:36;;;;;;;3.35;1.50;;;;;;;;;;5059228;28;20111;-81
2023/01/12 14:54:17;;;;;;;1.42;0.90;;;;;;;;;;5023450;28;20474;-81
2023/01/12 14:57:06;;;;;;;1.65;1.00;;;;;;;;;;5059494;28;20028;-80
2023/01/12 14:59:33;;;;;;;5.82;1.95;;;;;;;;;;5060119;28;20021;-80
2023/01/12 15:02:21;;;;;;;8.50;2.25;;;;;;;;;;5060579;28;20024;-80
2023/01/12 15:04:57;;;;;;;7.43;2.97;;;;;;;;;;5059821;28;20063;-79
2023/01/12 15:07:23;;;;;;;5.93;2.55;;;;;;;;;;5060192;28;20390;-81
2023/01/12 15:09:55;;;;;;;3.97;1.40;;;;;;;;;;5060736;28;20025;-80
2023/01/12 15:12:29;;;;;;;1.40;0.95;;;;;;;;;;5043218;28;20075;-81
2023/01/12 15:15:14;;;;;;;2.83;1.23;;;;;;;;;;5059766;28;20095;-81
2023/01/12 15:25:59;;;;;;;2.33;1.48;;;;;;;;;;5059805;28;20043;-81
2023/01/12 15:28:26;;;;;;;1.90;1.30;;;;;;;;;;5058876;28;20025;-81
2023/01/12 15:30:53;;;;;;;2.92;1.10;;;;;;;;;;5057714;28;20254;-80
2023/01/12 15:33:19;;;;;;;1.15;0.85;;;;;;;;;;5057872;28;20032;-82
2023/01/12 15:35:45;;;;;;;1.50;0.75;;;;;;;;;;5038484;28;20471;-81
2023/01/12 15:38:19;;;;;;;3.50;1.05;;;;;;;;;;5056618;28;20033;-82
2023/01/12 15:40:46;;;;;;;;;;;;;;;;;;5060060;28;20029;-81
2023/01/12 15:43:13;;;;;;;3.63;1.98;;;;;;;;;;5059621;28;20305;-81
2023/01/12 15:45:46;;;;;;;3.63;1.45;;;;;;;;;;5058187;28;20036;-80
2023/01/12 15:48:13;;;;;;;1.70;0.85;;;;;;;;;;5040237;28;20027;-80
2023/01/12 15:50:41;;;;;;;1.67;0.82;;;;;;;;;;5058694;28;20052;-82
2023/01/12 15:53:15;;;;;;;1.65;0.82;;;;;;;;;;5062648;28;20086;-81
2023/01/12 15:55:41;;;;;;;1.30;0.80;;;;;;;;;;5064675;28;20029;-81
2023/01/12 15:58:07;;;;;;;3.85;2.67;;;;;;;;;;5045994;28;20516;-81
2023/01/12 16:00:32;;;;;;;2.75;1.60;;;;;;;;;;5045987;28;20036;-82
2023/01/12 16:02:58;;;;;;;8.85;5.72;;;;;;;;;;5045570;28;20024;-81
2023/01/12 16:05:25;;;;;;;11.95;6.78;;;;;;;;;;5063074;28;20528;-80
2023/01/12 16:07:50;;;;;;;3.70;2.63;;;;;;;;;;5063165;28;20087;-79